Time;durP1;ratioP1;P1;durP2;ratioP2;P2;SDS_P1;SDS_P2;PMS_P1;PMS_P2;Temp;Humidity;BMP_temperature;BMP_pressure;BME280_temperature;BME280_humidity;BME280_pressure;Samples;Min_cycle;Max_cycle;Signal;HPM_P1;HPM_P2
2022/12/19 00:01:20;;;;;;;9.82;4.85;;;;;;;0.38;75.78;101574.78;4955580;28;20077;-66
2022/12/19 00:03:51;;;;;;;9.63;3.63;;;;;;;0.13;76.56;101566.81;4949215;28;20078;-66
2022/12/19 00:06:17;;;;;;;;;;;;;;;0.27;76.02;101562.63;4949077;28;20043;-66
2022/12/19 00:08:44;;;;;;;6.32;3.85;;;;;;;0.27;76.13;101567.91;4955073;28;20029;-66
2022/12/19 00:11:11;;;;;;;14.63;4.05;;;;;;;0.32;75.82;101562.59;4953109;28;20031;-66
2022/12/19 00:13:37;;;;;;;9.65;4.28;;;;;;;0.36;75.84;101558.38;4950680;28;20436;-66
2022/12/19 00:16:05;;;;;;;5.50;3.42;;;;;;;0.39;75.73;101566.56;4954032;29;20045;-66
2022/12/19 00:18:30;;;;;;;9.15;4.05;;;;;;;0.36;76.05;101571.59;4950936;28;20097;-66
2022/12/19 00:20:58;;;;;;;3.83;2.47;;;;;;;0.34;75.88;101565.78;4954176;29;20030;-66
2022/12/19 00:23:24;;;;;;;9.85;4.35;;;;;;;0.49;75.71;101563.13;4938508;29;20142;-66
2022/12/19 00:25:49;;;;;;;11.43;4.20;;;;;;;0.44;75.86;101558.66;4955809;28;20110;-66
2022/12/19 00:28:15;;;;;;;5.00;2.25;;;;;;;0.46;74.78;101545.13;4953574;28;20062;-66
2022/12/19 00:30:40;;;;;;;6.00;3.30;;;;;;;0.38;75.05;101543.81;4954090;29;20049;-66
2022/12/19 00:33:06;;;;;;;9.57;4.20;;;;;;;0.12;75.93;101544.84;4953902;29;20053;-66
2022/12/19 00:35:31;;;;;;;10.25;3.85;;;;;;;0.08;76.05;101540.34;4955295;28;20094;-66
2022/12/19 00:37:57;;;;;;;4.57;3.38;;;;;;;0.21;76.93;101545.13;4944784;28;20031;-66
2022/12/19 00:40:22;;;;;;;7.47;4.38;;;;;;;0.12;76.93;101541.41;4952205;29;20507;-66
2022/12/19 00:42:47;;;;;;;9.98;3.75;;;;;;;0.32;76.26;101522.88;4955169;28;20051;-66
2022/12/19 00:45:14;;;;;;;5.13;2.80;;;;;;;0.48;76.09;101527.13;4948356;28;20027;-65
2022/12/19 00:47:39;;;;;;;9.15;4.45;;;;;;;0.47;75.68;101526.31;4953545;29;20043;-65
2022/12/19 00:50:05;;;;;;;9.20;3.92;;;;;;;0.41;75.39;101527.38;4953587;29;20090;-65
2022/12/19 00:52:30;;;;;;;9.43;4.22;;;;;;;0.50;75.74;101525.00;4951463;28;20049;-64
2022/12/19 00:54:56;;;;;;;10.68;4.55;;;;;;;0.49;75.39;101524.19;4947474;29;20023;-64
2022/12/19 00:57:21;;;;;;;9.48;3.20;;;;;;;0.57;75.03;101521.03;4954045;29;20463;-65
2022/12/19 00:59:47;;;;;;;9.82;4.40;;;;;;;0.42;75.37;101518.38;4954295;29;20050;-64
2022/12/19 01:02:12;;;;;;;8.05;3.90;;;;;;;0.47;74.65;101520.22;4954154;28;20035;-64
2022/12/19 01:04:37;;;;;;;10.18;4.90;;;;;;;0.57;74.67;101517.56;4950235;28;20094;-65
2022/12/19 01:07:06;;;;;;;6.75;2.97;;;;;;;0.54;74.73;101515.47;4953206;28;20043;-65
2022/12/19 01:09:33;;;;;;;11.82;3.05;;;;;;;0.59;75.02;101524.19;4954822;28;20035;-66
2022/12/19 01:14:42;;;;;;;8.77;3.85;;;;;;;0.42;74.96;101512.28;4954988;29;20058;-66
2022/12/19 01:17:08;;;;;;;9.77;3.65;;;;;;;0.51;75.69;101521.28;4950565;28;20484;-66
2022/12/19 01:19:33;;;;;;;8.05;4.18;;;;;;;0.53;74.32;101512.00;4953775;29;20039;-65
2022/12/19 01:21:59;;;;;;;6.15;2.53;;;;;;;0.50;75.00;101511.75;4954400;28;20476;-65
2022/12/19 01:24:24;;;;;;;5.78;3.90;;;;;;;0.38;74.96;101527.13;4953243;29;20448;-65
2022/12/19 01:26:49;;;;;;;12.57;3.83;;;;;;;0.44;75.87;101505.69;4951666;28;20373;-65
2022/12/19 01:29:15;;;;;;;6.97;3.85;;;;;;;0.34;75.64;101510.16;4952536;29;20488;-65
2022/12/19 01:31:40;;;;;;;8.98;3.65;;;;;;;0.36;75.87;101510.69;4952400;28;20043;-65
2022/12/19 01:34:06;;;;;;;7.78;3.95;;;;;;;0.26;76.17;101500.09;4951726;29;20039;-65
2022/12/19 01:36:33;;;;;;;7.78;3.50;;;;;;;0.43;75.96;101504.06;4947528;28;20118;-66
2022/12/19 01:39:00;;;;;;;12.07;4.97;;;;;;;0.19;76.86;101494.28;4953894;28;20027;-67
2022/12/19 01:41:26;;;;;;;9.57;3.53;;;;;;;0.39;76.40;101483.69;4952517;28;20503;-65
2022/12/19 01:44:00;;;;;;;12.15;4.45;;;;;;;0.26;76.00;101487.66;4933790;28;20035;-66
2022/12/19 01:46:41;;;;;;;8.73;4.45;;;;;;;0.26;76.26;101482.38;4952714;29;20392;-64
2022/12/19 01:49:15;;;;;;;11.00;3.42;;;;;;;0.46;76.28;101477.06;4954702;28;20035;-66
2022/12/19 01:51:44;;;;;;;6.55;3.25;;;;;;;0.48;75.29;101480.25;4935089;28;20134;-66
2022/12/19 01:54:16;;;;;;;5.15;2.92;;;;;;;0.28;76.17;101484.75;4952805;29;20062;-67
2022/12/19 01:56:46;;;;;;;6.13;3.33;;;;;;;0.46;76.08;101486.88;4951445;29;20055;-67
2022/12/19 01:59:53;;;;;;;9.63;4.10;;;;;;;0.53;75.06;101472.28;4968485;28;20039;-66
2022/12/19 02:02:31;;;;;;;8.15;3.63;;;;;;;0.46;75.98;101474.41;4930548;29;20472;-66
2022/12/19 02:04:57;;;;;;;5.05;3.05;;;;;;;0.58;75.55;101463.53;4952360;29;20102;-66
2022/12/19 02:07:25;;;;;;;14.25;3.95;;;;;;;0.69;75.12;101465.09;4946258;28;20036;-66
2022/12/19 02:09:53;;;;;;;3.42;2.28;;;;;;;0.76;74.99;101460.31;4951903;29;20432;-65
2022/12/19 02:12:21;;;;;;;8.52;4.97;;;;;;;0.76;74.92;101468.25;4951902;29;20078;-66
2022/12/19 02:14:47;;;;;;;5.53;3.63;;;;;;;0.80;73.50;101450.75;4951354;28;20026;-65
2022/12/19 02:17:26;;;;;;;6.20;2.80;;;;;;;0.80;74.26;101448.09;4952105;29;20408;-65
2022/12/19 02:20:15;;;;;;;8.95;3.25;;;;;;;0.84;74.68;101438.56;4952008;28;20126;-66
2022/12/19 02:23:13;;;;;;;8.45;3.97;;;;;;;0.63;75.09;101435.19;4946046;28;20106;-65
2022/12/19 02:26:11;;;;;;;5.22;2.97;;;;;;;0.74;75.08;101433.28;4950795;29;20029;-66
2022/12/19 02:28:52;;;;;;;5.03;3.15;;;;;;;0.78;75.50;101413.13;4952534;29;20035;-66
2022/12/19 02:31:26;;;;;;;9.02;3.47;;;;;;;0.78;75.44;101423.72;4950198;28;20412;-66
2022/12/19 02:34:21;;;;;;;10.85;5.05;;;;;;;0.73;75.46;101406.00;4951700;29;20062;-65
2022/12/19 02:37:16;;;;;;;11.73;4.63;;;;;;;0.81;75.60;101412.59;4951676;29;20393;-66
2022/12/19 02:39:54;;;;;;;7.60;3.13;;;;;;;0.81;75.20;101412.59;4967449;28;20039;-66
2022/12/19 02:42:34;;;;;;;6.55;2.92;;;;;;;0.82;76.02;101414.16;4934386;29;20035;-66
2022/12/19 02:45:04;;;;;;;5.65;3.60;;;;;;;0.88;76.63;101400.63;4955008;28;20123;-66
2022/12/19 02:47:32;;;;;;;9.93;3.35;;;;;;;0.96;77.17;101404.59;4952288;28;20539;-66
2022/12/19 02:49:59;;;;;;;12.50;4.45;;;;;;;0.99;77.58;101404.03;4951920;29;20046;-66
2022/12/19 02:52:24;;;;;;;7.22;4.50;;;;;;;0.83;78.79;101400.66;4951333;28;20480;-66
2022/12/19 02:54:55;;;;;;;7.90;4.78;;;;;;;0.72;79.62;101398.31;4951085;29;20034;-65
2022/12/19 02:57:44;;;;;;;4.70;2.78;;;;;;;0.93;78.42;101402.47;4952600;29;20023;-66
2022/12/19 03:00:24;;;;;;;3.70;1.95;;;;;;;0.95;78.42;101410.16;4948668;28;20093;-66
2022/12/19 03:03:06;;;;;;;4.25;2.28;;;;;;;0.91;79.52;101416.00;4945455;29;20062;-65
2022/12/19 03:05:45;;;;;;;7.18;3.70;;;;;;;0.66;80.54;101399.38;4946993;29;20039;-67
2022/12/19 03:08:23;;;;;;;8.73;2.85;;;;;;;0.79;80.91;101412.06;4958775;28;20452;-66
2022/12/19 03:10:57;;;;;;;6.55;4.00;;;;;;;0.73;82.05;101395.41;4949471;29;20126;-65
2022/12/19 03:13:51;;;;;;;5.78;3.20;;;;;;;0.82;81.42;101396.41;4961470;28;20421;-66
2022/12/19 03:16:17;;;;;;;6.15;3.88;;;;;;;0.73;82.01;101376.06;4950483;28;20038;-66
2022/12/19 03:18:43;;;;;;;7.15;3.20;;;;;;;0.87;81.68;101366.47;4935221;29;20027;-66
2022/12/19 03:21:20;;;;;;;8.13;3.88;;;;;;;1.01;81.72;101366.66;4952081;28;20031;-67
2022/12/19 03:23:49;;;;;;;7.32;3.13;;;;;;;1.12;81.00;101371.63;4927733;29;20035;-66
2022/12/19 03:26:19;;;;;;;7.78;3.88;;;;;;;0.83;82.32;101362.78;4951972;28;20166;-66
2022/12/19 03:28:53;;;;;;;10.45;3.65;;;;;;;1.03;81.87;101365.31;4950529;29;20043;-66
2022/12/19 03:31:24;;;;;;;8.90;3.33;;;;;;;1.08;81.73;101351.22;4947480;28;20039;-65
2022/12/19 03:33:54;;;;;;;6.78;3.03;;;;;;;1.03;81.64;101352.03;4949984;29;20034;-66
2022/12/19 03:36:26;;;;;;;9.25;3.55;;;;;;;0.94;82.33;101361.66;4946697;28;20102;-66
2022/12/19 03:38:53;;;;;;;5.45;3.78;;;;;;;0.98;82.55;101365.34;4945097;29;20043;-66
2022/12/19 03:43:07;;;;;;;5.72;3.00;;;;;;;0.84;83.86;101351.88;4950658;29;20038;-66
2022/12/19 03:44:09;;;;;;;5.05;3.00;;;;;;;1.20;83.14;101344.50;4941117;28;20039;-66
2022/12/19 03:46:41;;;;;;;8.40;3.65;;;;;;;1.13;82.72;101340.59;4946293;29;20039;-66
2022/12/19 03:49:07;;;;;;;8.45;4.68;;;;;;;1.02;83.19;101334.56;4942645;28;20167;-66
2022/12/19 03:51:53;;;;;;;5.32;3.05;;;;;;;1.19;83.58;101348.25;4943202;29;20523;-68
2022/12/19 03:54:26;;;;;;;8.13;3.97;;;;;;;1.07;83.94;101339.03;4944872;28;20105;-66
2022/12/19 03:57:14;;;;;;;9.63;4.18;;;;;;;0.93;84.11;101344.16;4950811;29;20116;-65
2022/12/19 03:59:44;;;;;;;6.50;4.35;;;;;;;1.03;84.92;101345.97;4951878;28;20043;-66
2022/12/19 04:02:13;;;;;;;6.50;3.55;;;;;;;1.23;84.12;101337.88;4947373;28;20066;-66
2022/12/19 04:04:42;;;;;;;6.25;2.95;;;;;;;1.22;83.95;101326.47;4937027;28;20039;-66
2022/12/19 04:07:09;;;;;;;13.48;3.53;;;;;;;1.38;83.70;101330.59;4945745;28;20078;-66
2022/12/19 04:09:38;;;;;;;10.52;3.53;;;;;;;1.38;82.86;101314.69;4950266;28;20041;-65
2022/12/19 04:12:07;;;;;;;8.07;3.63;;;;;;;1.38;83.09;101314.69;4947748;28;20389;-65
2022/12/19 04:14:36;;;;;;;5.47;3.08;;;;;;;1.20;83.70;101314.56;4952108;28;20053;-66
2022/12/19 04:17:08;;;;;;;6.70;2.92;;;;;;;1.12;84.74;101297.41;4939852;28;20063;-66
2022/12/19 04:19:56;;;;;;;6.43;3.53;;;;;;;1.06;85.41;101306.44;4950558;29;20035;-66
2022/12/19 04:22:43;;;;;;;11.18;5.05;;;;;;;1.24;84.37;101297.81;4942561;29;20037;-66
2022/12/19 04:25:14;;;;;;;8.43;4.13;;;;;;;1.37;84.11;101294.56;4941589;28;20577;-65
2022/12/19 04:27:45;;;;;;;9.80;4.35;;;;;;;1.34;83.60;101289.78;4951408;29;20037;-65
2022/12/19 04:30:16;;;;;;;5.60;3.03;;;;;;;1.37;84.23;101281.28;4947887;28;20070;-66
2022/12/19 04:32:46;;;;;;;8.65;3.28;;;;;;;1.40;84.65;101275.41;4948702;29;20078;-67
2022/12/19 04:35:15;;;;;;;6.00;4.10;;;;;;;1.19;84.66;101275.84;4952005;28;20070;-65
2022/12/19 04:37:41;;;;;;;7.75;3.15;;;;;;;1.30;84.82;101270.19;4952262;28;20027;-65
2022/12/19 04:40:08;;;;;;;6.15;3.83;;;;;;;1.40;84.14;101269.31;4947737;28;20053;-65
2022/12/19 04:42:34;;;;;;;7.40;3.17;;;;;;;1.55;84.15;101277.13;4952887;28;20070;-65
2022/12/19 04:45:00;;;;;;;6.70;2.97;;;;;;;1.62;83.40;101264.34;4954312;29;20058;-66
2022/12/19 04:47:25;;;;;;;7.65;3.00;;;;;;;1.67;82.83;101251.03;4949682;28;20492;-66
2022/12/19 04:49:50;;;;;;;6.47;3.88;;;;;;;1.71;82.67;101252.84;4954371;28;20043;-65
2022/12/19 04:52:16;;;;;;;6.95;3.65;;;;;;;1.63;83.56;101252.66;4955067;28;20035;-65
2022/12/19 04:54:41;;;;;;;6.95;2.92;;;;;;;1.58;83.50;101252.72;4946740;28;20053;-65
2022/12/19 04:57:07;;;;;;;8.48;4.40;;;;;;;1.66;84.12;101238.84;4953831;29;20042;-65
2022/12/19 04:59:32;;;;;;;5.00;3.38;;;;;;;1.54;83.81;101235.78;4955314;28;20530;-65
2022/12/19 05:01:58;;;;;;;8.88;3.42;;;;;;;1.52;84.50;101224.63;4953900;28;20126;-66
2022/12/19 05:04:23;;;;;;;4.20;3.00;;;;;;;1.64;84.07;101225.06;4953468;29;20644;-66
2022/12/19 05:06:48;;;;;;;16.05;4.03;;;;;;;1.59;84.64;101231.19;4954881;28;20491;-66
2022/12/19 05:09:14;;;;;;;8.98;4.10;;;;;;;1.57;84.71;101225.38;4953758;29;20520;-65
2022/12/19 05:11:39;;;;;;;10.38;3.63;;;;;;;1.67;84.80;101219.19;4951840;28;20035;-66
2022/12/19 05:14:05;;;;;;;4.10;3.33;;;;;;;1.68;84.76;101208.28;4955065;29;20038;-65
2022/12/19 05:16:30;;;;;;;6.53;3.42;;;;;;;1.64;85.19;101217.09;4952771;28;20155;-66
2022/12/19 05:18:56;;;;;;;12.57;4.43;;;;;;;1.59;85.97;101214.47;4954849;28;20094;-65
2022/12/19 05:21:22;;;;;;;6.13;3.80;;;;;;;1.45;86.87;101211.69;4954818;28;20134;-66
2022/12/19 05:23:48;;;;;;;2.67;2.45;;;;;;;1.72;86.17;101208.53;4952872;28;20030;-65
2022/12/19 05:26:14;;;;;;;14.57;4.22;;;;;;;1.83;86.18;101212.66;4951623;28;20175;-65
2022/12/19 05:28:39;;;;;;;7.53;3.15;;;;;;;1.82;86.02;101197.78;4953694;29;20051;-66
2022/12/19 05:31:08;;;;;;;7.65;3.88;;;;;;;1.89;85.86;101190.28;4954648;28;20043;-66
2022/12/19 05:33:34;;;;;;;6.95;3.85;;;;;;;1.83;86.11;101186.09;4954073;28;20043;-65
2022/12/19 05:36:01;;;;;;;7.68;3.63;;;;;;;1.78;86.69;101180.84;4954470;28;20093;-66
2022/12/19 05:38:27;;;;;;;3.20;2.58;;;;;;;1.89;86.12;101179.66;4954455;28;20448;-66
2022/12/19 05:40:52;;;;;;;6.25;3.05;;;;;;;1.86;87.21;101182.09;4951245;28;20042;-65
2022/12/19 05:43:17;;;;;;;8.57;3.55;;;;;;;1.87;87.33;101199.59;4956316;28;20024;-66
2022/12/19 05:45:43;;;;;;;9.23;4.88;;;;;;;1.83;87.71;101178.94;4946038;29;20039;-66
2022/12/19 05:48:08;;;;;;;6.07;2.38;;;;;;;1.88;87.95;101175.41;4948377;29;20481;-65
2022/12/19 05:50:34;;;;;;;10.07;4.70;;;;;;;1.82;88.24;101172.03;4948600;28;20062;-66
2022/12/19 05:53:07;;;;;;;9.90;3.83;;;;;;;2.01;88.05;101179.25;4945796;28;20032;-65
2022/12/19 05:55:33;;;;;;;8.68;4.55;;;;;;;2.06;87.57;101179.19;4942489;28;20528;-65
2022/12/19 05:57:58;;;;;;;8.05;3.05;;;;;;;2.06;88.06;101179.19;4935268;29;20622;-66
2022/12/19 06:00:24;;;;;;;5.45;2.92;;;;;;;1.94;88.27;101168.16;4936413;29;20032;-66
2022/12/19 06:02:49;;;;;;;6.53;2.78;;;;;;;1.79;89.25;101185.09;4939918;28;20412;-66
2022/12/19 06:05:15;;;;;;;9.98;4.57;;;;;;;2.04;88.73;101176.81;4956882;28;20030;-66
2022/12/19 06:07:41;;;;;;;10.43;3.42;;;;;;;1.97;89.30;101172.94;4948648;28;20408;-66
2022/12/19 06:10:06;;;;;;;6.53;3.50;;;;;;;2.21;88.35;101169.16;4943049;28;20039;-67
2022/12/19 06:12:32;;;;;;;6.22;2.92;;;;;;;2.25;88.21;101156.09;4941930;28;20043;-67
2022/12/19 06:14:57;;;;;;;8.07;3.83;;;;;;;2.24;88.00;101154.50;4938485;28;20073;-65
2022/12/19 06:17:23;;;;;;;4.72;3.42;;;;;;;2.33;87.47;101142.16;4933566;28;20039;-64
2022/12/19 06:19:48;;;;;;;7.90;4.53;;;;;;;2.36;87.67;101145.03;4933899;29;20077;-65
2022/12/19 06:22:14;;;;;;;3.15;2.72;;;;;;;2.50;86.82;101142.44;4934210;29;20051;-63
2022/12/19 06:24:39;;;;;;;6.13;3.03;;;;;;;2.19;88.67;101138.66;4933541;29;20136;-64
2022/12/19 06:27:05;;;;;;;9.25;3.67;;;;;;;2.35;88.41;101132.84;4941296;28;20031;-64
2022/12/19 06:29:30;;;;;;;6.82;3.75;;;;;;;2.42;88.46;101127.16;4945534;28;20147;-63
2022/12/19 06:31:55;;;;;;;4.80;2.90;;;;;;;2.46;88.32;101120.16;4943223;28;20038;-64
2022/12/19 06:34:21;;;;;;;7.10;3.75;;;;;;;2.54;87.67;101114.22;4940515;28;20043;-65
2022/12/19 06:36:47;;;;;;;8.48;3.58;;;;;;;2.54;88.29;101122.19;4948558;28;20039;-64
2022/12/19 06:39:14;;;;;;;7.68;4.03;;;;;;;2.47;88.63;101109.28;4943912;28;20063;-63
2022/12/19 06:44:23;;;;;;;4.85;3.22;;;;;;;2.58;88.15;101108.03;4942124;28;20063;-66
2022/12/19 06:46:51;;;;;;;5.65;3.08;;;;;;;2.65;88.22;101121.72;4935462;28;20063;-64
2022/12/19 06:49:17;;;;;;;4.93;3.03;;;;;;;2.67;88.37;101135.53;4935600;29;20032;-65
2022/12/19 06:51:43;;;;;;;6.55;3.65;;;;;;;2.62;87.88;101130.28;4934727;29;20075;-66
2022/12/19 06:54:12;;;;;;;8.00;4.57;;;;;;;2.61;88.26;101119.97;4933512;28;20150;-66
2022/12/19 06:56:40;;;;;;;7.93;3.25;;;;;;;2.70;88.21;101120.88;4951088;28;20048;-65
2022/12/19 06:59:13;;;;;;;12.00;5.20;;;;;;;2.69;87.95;101116.66;4935841;29;20020;-65
2022/12/19 07:02:12;;;;;;;8.52;3.55;;;;;;;2.57;88.64;101103.00;4945101;29;20035;-64
2022/12/19 07:04:42;;;;;;;4.10;2.78;;;;;;;2.46;89.24;101106.88;4933280;29;20039;-64
2022/12/19 07:07:07;;;;;;;5.47;3.17;;;;;;;2.58;89.41;101109.91;4932395;29;20035;-66
2022/12/19 07:09:33;;;;;;;5.53;3.65;;;;;;;2.74;89.05;101114.69;4933098;28;20485;-66
2022/12/19 07:12:00;;;;;;;7.60;3.97;;;;;;;2.58;89.13;101115.22;4937111;28;20434;-65
2022/12/19 07:14:25;;;;;;;8.48;3.35;;;;;;;2.59;89.06;101114.16;4949705;29;20396;-64
2022/12/19 07:16:53;;;;;;;5.25;2.60;;;;;;;2.65;89.60;101113.75;4949906;28;20030;-65
2022/12/19 07:19:19;;;;;;;5.15;2.88;;;;;;;2.72;89.10;101105.41;4951029;29;20035;-65
2022/12/19 07:21:45;;;;;;;7.13;3.30;;;;;;;2.49;89.93;101104.47;4952376;28;20050;-65
2022/12/19 07:24:12;;;;;;;4.68;3.13;;;;;;;2.73;89.92;101099.00;4952820;28;20039;-63
2022/12/19 07:26:37;;;;;;;7.05;3.15;;;;;;;2.82;89.38;101107.91;4941825;28;20160;-67
2022/12/19 07:29:03;;;;;;;4.57;3.17;;;;;;;2.61;90.17;101098.69;4951941;28;20105;-70
2022/12/19 07:31:28;;;;;;;4.80;2.95;;;;;;;2.73;90.05;101099.81;4950075;29;20038;-66
2022/12/19 07:33:54;;;;;;;4.75;3.13;;;;;;;2.68;90.02;101105.22;4948295;28;20023;-64
2022/12/19 07:36:19;;;;;;;5.70;2.60;;;;;;;2.49;90.62;101111.63;4951703;28;20035;-65
2022/12/19 07:38:45;;;;;;;8.57;4.60;;;;;;;2.68;91.01;101097.25;4952286;28;20039;-66
2022/12/19 07:41:10;;;;;;;11.30;3.75;;;;;;;2.87;90.40;101099.03;4951716;29;20102;-66
2022/12/19 07:43:36;;;;;;;6.30;2.85;;;;;;;2.97;89.69;101102.34;4948140;28;20046;-66
2022/12/19 07:46:01;;;;;;;10.77;3.92;;;;;;;2.98;89.97;101101.22;4952217;29;20039;-66
2022/12/19 07:48:29;;;;;;;12.40;3.70;;;;;;;3.14;89.68;101101.75;4953197;28;20027;-66
2022/12/19 07:50:54;;;;;;;9.02;4.05;;;;;;;2.73;90.85;101099.81;4951575;28;20094;-66
2022/12/19 07:53:20;;;;;;;5.57;3.05;;;;;;;2.87;90.64;101099.84;4951277;29;20039;-66
2022/12/19 07:55:49;;;;;;;6.85;4.15;;;;;;;2.89;91.72;101105.66;4932891;29;20059;-66
2022/12/19 07:58:15;;;;;;;10.40;4.25;;;;;;;2.96;92.02;101106.06;4952517;28;20035;-66
2022/12/19 08:00:40;;;;;;;7.30;3.10;;;;;;;2.99;91.75;101102.03;4950594;28;20039;-66
2022/12/19 08:03:07;;;;;;;9.93;4.82;;;;;;;2.86;93.01;101105.47;4948858;28;20075;-66
2022/12/19 08:05:33;;;;;;;12.07;4.13;;;;;;;2.98;93.01;101092.50;4952414;29;20078;-66
2022/12/19 08:07:59;;;;;;;9.55;4.05;;;;;;;3.11;92.27;101095.16;4942903;29;20024;-66
2022/12/19 08:10:24;;;;;;;6.25;3.22;;;;;;;3.07;92.90;101091.53;4950047;29;20039;-66
2022/12/19 08:12:50;;;;;;;9.23;3.67;;;;;;;2.98;94.01;101097.81;4942853;28;20089;-66
2022/12/19 08:15:15;;;;;;;7.95;3.38;;;;;;;3.10;93.14;101084.81;4935526;28;20031;-66
2022/12/19 08:17:41;;;;;;;10.27;4.70;;;;;;;2.99;94.29;101099.38;4937768;29;20027;-66
2022/12/19 08:20:10;;;;;;;9.63;3.63;;;;;;;3.10;94.26;101104.22;4940663;29;20043;-66
2022/12/19 08:22:35;;;;;;;9.73;3.22;;;;;;;3.14;94.67;101097.22;4944706;28;20031;-66
2022/12/19 08:25:01;;;;;;;6.70;3.13;;;;;;;3.20;94.10;101106.69;4952589;28;20608;-66
2022/12/19 08:27:27;;;;;;;7.70;4.20;;;;;;;3.10;95.11;101096.25;4954491;29;20031;-67
2022/12/19 08:29:52;;;;;;;6.80;3.50;;;;;;;3.11;95.43;101103.16;4956079;28;20034;-67
2022/12/19 08:32:19;;;;;;;9.32;4.47;;;;;;;3.05;96.30;101083.03;4954451;29;20039;-66
2022/12/19 08:34:44;;;;;;;7.95;4.13;;;;;;;2.99;96.92;101080.75;4952587;28;20027;-67
2022/12/19 08:37:10;;;;;;;7.05;2.85;;;;;;;3.13;96.64;101071.72;4952683;29;20043;-66
2022/12/19 08:39:36;;;;;;;6.05;2.28;;;;;;;3.23;95.83;101068.84;4941014;28;20078;-67
2022/12/19 08:42:01;;;;;;;5.78;3.58;;;;;;;3.12;96.25;101064.03;4945360;28;20086;-67
2022/12/19 08:44:27;;;;;;;4.13;2.75;;;;;;;3.12;96.74;101059.50;4947456;28;20457;-66
2022/12/19 08:46:52;;;;;;;6.47;3.70;;;;;;;3.13;97.35;101058.44;4940642;29;20027;-67
2022/12/19 08:49:18;;;;;;;8.68;2.75;;;;;;;3.02;98.59;101058.91;4935471;29;20519;-66
2022/12/19 08:51:44;;;;;;;7.85;3.78;;;;;;;3.09;99.06;101052.13;4943974;28;20032;-67
2022/12/19 08:54:11;;;;;;;10.88;3.22;;;;;;;3.04;99.05;101052.19;4945705;29;20404;-67
2022/12/19 08:56:40;;;;;;;7.13;3.20;;;;;;;3.00;99.69;101047.78;4938482;28;20023;-66
2022/12/19 08:59:05;;;;;;;7.40;3.67;;;;;;;3.06;99.79;101052.69;4938402;29;20031;-66
2022/12/19 09:01:31;;;;;;;12.90;4.55;;;;;;;2.97;100.00;101051.81;4940720;29;20484;-66
2022/12/19 09:03:58;;;;;;;7.63;3.88;;;;;;;3.18;99.83;101049.53;4944295;28;20042;-66
2022/12/19 09:06:23;;;;;;;5.15;3.40;;;;;;;3.23;99.48;101044.13;4941875;29;20023;-66
2022/12/19 09:08:49;;;;;;;12.10;4.60;;;;;;;3.38;99.16;101046.50;4942004;29;20402;-66
2022/12/19 09:11:17;;;;;;;7.70;3.05;;;;;;;3.52;98.02;101042.72;4942019;29;20031;-66
2022/12/19 09:13:43;;;;;;;6.85;2.90;;;;;;;3.27;99.59;101037.91;4937831;28;20039;-66
2022/12/19 09:16:16;;;;;;;6.00;3.05;;;;;;;3.25;99.63;101048.06;4950282;29;20027;-66
2022/12/19 09:18:47;;;;;;;9.88;3.78;;;;;;;3.36;99.29;101040.69;4951191;29;20395;-66
2022/12/19 09:21:13;;;;;;;8.20;3.92;;;;;;;3.27;99.80;101042.47;4938615;28;20050;-67
2022/12/19 09:23:39;;;;;;;4.90;3.42;;;;;;;3.01;100.00;101044.81;4952797;28;20031;-67
2022/12/19 09:26:08;;;;;;;8.60;4.78;;;;;;;3.08;100.00;101047.09;4941631;28;20453;-67
2022/12/19 09:28:36;;;;;;;7.90;4.00;;;;;;;3.23;100.00;101031.59;4937342;28;20376;-67
2022/12/19 09:31:04;;;;;;;5.32;3.47;;;;;;;3.43;100.00;101031.22;4949496;28;20059;-67
2022/12/19 09:33:31;;;;;;;7.47;3.83;;;;;;;3.37;100.00;101026.28;4949041;29;20031;-67
2022/12/19 09:35:57;;;;;;;7.30;3.80;;;;;;;3.30;100.00;101023.22;4952446;29;20027;-67
2022/12/19 09:38:24;;;;;;;8.82;4.15;;;;;;;3.43;100.00;101031.22;4952847;28;20058;-67
2022/12/19 09:41:21;;;;;;;8.40;4.25;;;;;;;3.45;100.00;101023.72;4947665;29;20039;-67
2022/12/19 09:44:17;;;;;;;7.20;3.10;;;;;;;3.60;100.00;101019.97;4950242;29;20063;-67
2022/12/19 09:46:52;;;;;;;6.28;3.55;;;;;;;3.46;100.00;101014.66;4951864;29;20448;-67
2022/12/19 09:49:22;;;;;;;6.30;4.03;;;;;;;3.43;100.00;101009.13;4942211;28;20055;-67
2022/12/19 09:52:06;;;;;;;7.60;3.97;;;;;;;3.41;100.00;101005.97;4938567;28;20066;-67
2022/12/19 09:54:37;;;;;;;8.60;3.97;;;;;;;3.50;100.00;101004.97;4940732;29;20566;-67
2022/12/19 09:57:16;;;;;;;11.10;4.30;;;;;;;3.20;100.00;101005.59;4938533;28;20139;-67
2022/12/19 09:59:56;;;;;;;8.45;3.63;;;;;;;3.14;100.00;101003.31;4936605;29;20040;-67
2022/12/19 10:02:35;;;;;;;10.38;4.20;;;;;;;3.32;100.00;101008.56;4948079;28;20477;-67
2022/12/19 10:05:10;;;;;;;8.18;3.28;;;;;;;3.47;100.00;100992.25;4934659;29;20118;-67
2022/12/19 10:07:36;;;;;;;5.05;3.55;;;;;;;3.57;100.00;100994.72;4948748;28;20481;-67
2022/12/19 10:10:02;;;;;;;7.03;3.78;;;;;;;3.60;100.00;100988.78;4952939;28;20027;-67
2022/12/19 10:12:52;;;;;;;6.78;3.10;;;;;;;3.74;100.00;100987.94;4952132;28;20461;-67
2022/12/19 10:15:34;;;;;;;4.43;2.95;;;;;;;3.75;100.00;100987.66;4948028;28;20043;-67
2022/12/19 10:18:17;;;;;;;7.10;4.38;;;;;;;3.76;100.00;100983.09;4947468;29;20027;-67
2022/12/19 10:21:05;;;;;;;6.43;3.95;;;;;;;3.79;100.00;100980.66;4954064;28;20126;-67
2022/12/19 10:23:48;;;;;;;6.53;2.90;;;;;;;3.63;100.00;100988.19;4944964;28;20043;-67
2022/12/19 10:26:22;;;;;;;6.10;3.45;;;;;;;3.57;100.00;100976.09;4954827;29;20546;-67
2022/12/19 10:29:17;;;;;;;8.05;4.63;;;;;;;3.55;100.00;100980.91;4949622;29;20032;-67
2022/12/19 10:32:03;;;;;;;6.47;3.33;;;;;;;3.57;100.00;100964.63;4935573;28;20047;-67
2022/12/19 10:34:51;;;;;;;3.22;2.35;;;;;;;3.67;100.00;100961.75;4949424;28;20039;-67
2022/12/19 10:37:27;;;;;;;11.73;4.35;;;;;;;3.79;100.00;100963.88;4947438;29;20027;-68
2022/12/19 10:40:09;;;;;;;4.47;2.20;;;;;;;3.94;100.00;100958.19;4948874;28;20464;-67
2022/12/19 10:42:49;;;;;;;6.70;4.13;;;;;;;3.67;100.00;100961.75;4942028;29;20039;-67
2022/12/19 10:45:21;;;;;;;7.25;3.60;;;;;;;3.77;100.00;100963.41;4949819;28;20047;-67
2022/12/19 10:47:55;;;;;;;12.20;4.65;;;;;;;3.97;100.00;100954.94;4949090;29;20216;-67
2022/12/19 10:50:24;;;;;;;5.13;3.35;;;;;;;4.09;100.00;100944.50;4948771;28;20119;-67
2022/12/19 10:53:03;;;;;;;10.40;5.03;;;;;;;3.86;100.00;100943.72;4950473;29;20119;-67
2022/12/19 10:55:41;;;;;;;5.03;3.63;;;;;;;4.07;100.00;100941.34;4953392;28;20043;-67
2022/12/19 10:58:22;;;;;;;8.43;3.78;;;;;;;4.02;100.00;100942.28;4951794;28;20063;-67
2022/12/19 11:01:15;;;;;;;8.10;4.63;;;;;;;4.15;100.00;100938.75;4941712;28;20127;-67
2022/12/19 11:03:45;;;;;;;11.00;3.33;;;;;;;4.17;100.00;100939.25;4950672;28;20042;-67
2022/12/19 11:06:32;;;;;;;8.35;3.00;;;;;;;4.16;100.00;100936.88;4946226;28;20063;-67
2022/12/19 11:09:17;;;;;;;5.72;2.30;;;;;;;4.28;100.00;100927.22;4936501;28;20093;-67
2022/12/19 11:11:45;;;;;;;9.63;4.45;;;;;;;4.05;100.00;100919.56;4938727;28;20036;-67
2022/12/19 11:14:20;;;;;;;5.88;2.60;;;;;;;4.09;100.00;100920.53;4939710;28;20031;-67
2022/12/19 11:16:45;;;;;;;7.00;4.43;;;;;;;4.19;100.00;100909.63;4948844;28;20032;-67
2022/12/19 11:19:36;;;;;;;8.77;4.22;;;;;;;4.22;100.00;100909.78;4943323;28;20419;-65
2022/12/19 11:22:15;;;;;;;10.15;3.70;;;;;;;4.21;100.00;100904.78;4949567;28;20039;-68
2022/12/19 11:24:46;;;;;;;6.60;3.33;;;;;;;4.35;100.00;100902.81;4929906;29;20035;-66
2022/12/19 11:27:45;;;;;;;6.10;3.90;;;;;;;4.18;100.00;100908.06;4938816;28;20429;-67
2022/12/19 11:30:14;;;;;;;5.78;3.03;;;;;;;4.41;100.00;100917.59;4946116;28;20035;-70
2022/12/19 11:32:45;;;;;;;4.50;2.75;;;;;;;4.42;100.00;100903.94;4940035;28;20077;-67
2022/12/19 11:35:16;;;;;;;5.53;3.53;;;;;;;4.33;100.00;100903.13;4960367;28;20039;-67
2022/12/19 11:38:04;;;;;;;4.70;3.08;;;;;;;4.47;100.00;100892.38;4954794;28;20094;-65
2022/12/19 11:40:42;;;;;;;8.95;3.75;;;;;;;4.37;100.00;100890.75;4935467;28;20039;-68
2022/12/19 11:43:18;;;;;;;6.63;3.58;;;;;;;4.41;100.00;100891.69;4939575;29;20043;-68
2022/12/19 11:45:59;;;;;;;5.43;3.22;;;;;;;4.33;100.00;100889.00;4935366;28;20031;-68
2022/12/19 11:48:33;;;;;;;4.70;2.97;;;;;;;4.60;100.00;100883.47;4949519;28;20039;-68
2022/12/19 11:51:06;;;;;;;5.70;3.30;;;;;;;4.71;100.00;100890.09;4935123;29;20126;-67
2022/12/19 11:53:41;;;;;;;7.10;2.28;;;;;;;4.68;100.00;100885.38;4939712;29;20051;-68